createdAt,value
2017-09-22T00:00:55.011Z,13.81
2017-09-22T00:02:12.001Z,13.79
2017-09-22T00:03:27.234Z,13.78
2017-09-22T00:04:44.133Z,13.77
2017-09-22T00:05:59.718Z,13.76
2017-09-22T00:07:15.246Z,13.77
2017-09-22T00:08:30.262Z,13.76
2017-09-22T00:09:45.786Z,13.76
2017-09-22T00:11:01.984Z,13.76
2017-09-22T00:12:17.421Z,13.75
2017-09-22T00:13:32.231Z,13.74
2017-09-22T00:14:48.714Z,13.71
2017-09-22T00:16:05.481Z,13.7
2017-09-22T00:17:22.724Z,13.66
2017-09-22T00:18:38.940Z,13.64
2017-09-22T00:19:54.864Z,13.61
2017-09-22T00:21:10.703Z,13.6
2017-09-22T00:22:25.495Z,13.6
2017-09-22T00:23:41.385Z,13.6
2017-09-22T00:24:56.305Z,13.61
2017-09-22T00:26:12.271Z,13.61
2017-09-22T00:37:23.690Z,13.74
2017-09-22T00:38:38.095Z,13.73
2017-09-22T00:39:51.681Z,13.72
2017-09-22T00:41:06.075Z,13.72
2017-09-22T00:42:20.122Z,13.7
2017-09-22T00:43:34.001Z,13.69
2017-09-22T00:45:32.893Z,13.68
2017-09-22T00:46:47.005Z,13.66
2017-09-22T00:48:00.729Z,13.65
2017-09-22T00:49:14.467Z,13.65
2017-09-22T00:50:28.652Z,13.64
2017-09-22T00:51:42.726Z,13.62
2017-09-22T00:52:56.974Z,13.61
2017-09-22T00:54:30.588Z,13.59
2017-09-22T00:55:44.430Z,13.57
2017-09-22T00:56:58.310Z,13.55
2017-09-22T00:58:12.818Z,13.53
2017-09-22T00:59:26.884Z,13.53
2017-09-22T01:00:41.176Z,13.51
2017-09-22T01:02:46.112Z,13.49
2017-09-22T01:04:01.898Z,13.48
2017-09-22T01:05:15.454Z,13.49
2017-09-22T01:06:29.013Z,13.48
2017-09-22T01:07:42.595Z,13.48
2017-09-22T01:08:56.144Z,13.45
2017-09-22T01:10:10.405Z,13.42
2017-09-22T01:11:23.933Z,13.41
2017-09-22T01:12:37.701Z,13.39
2017-09-22T01:13:51.643Z,13.35
2017-09-22T01:15:05.560Z,13.34
2017-09-22T01:16:19.654Z,13.3
2017-09-22T01:17:38.236Z,13.27
2017-09-22T01:21:07.160Z,13.24
2017-09-22T01:22:21.388Z,13.22
2017-09-22T01:23:35.147Z,13.19
2017-09-22T01:24:49.086Z,13.19
2017-09-22T01:26:02.877Z,13.17
2017-09-22T01:27:18.000Z,13.17
2017-09-22T01:28:31.833Z,13.18
2017-09-22T01:29:45.612Z,13.2
2017-09-22T01:30:59.540Z,13.21
2017-09-22T01:32:13.275Z,13.21
2017-09-22T01:33:26.765Z,13.23
2017-09-22T01:34:40.648Z,13.22
2017-09-22T01:35:54.572Z,13.22
2017-09-22T01:37:08.281Z,13.21
2017-09-22T01:38:21.921Z,13.2
2017-09-22T01:39:36.075Z,13.19
2017-09-22T01:40:49.969Z,13.18
2017-09-22T01:42:03.885Z,13.16
2017-09-22T01:43:17.727Z,13.17
2017-09-22T01:44:31.641Z,13.14
2017-09-22T01:45:45.616Z,13.13
2017-09-22T01:46:59.485Z,13.11
2017-09-22T01:48:13.442Z,13.12
2017-09-22T01:49:27.000Z,13.09
2017-09-22T01:50:42.284Z,13.07
2017-09-22T01:51:56.905Z,13.05
2017-09-22T01:53:11.504Z,13.02
2017-09-22T01:54:25.049Z,12.99
2017-09-22T01:55:39.742Z,12.95
2017-09-22T01:56:53.884Z,12.92
2017-09-22T01:58:07.909Z,12.89
2017-09-22T01:59:21.861Z,12.88
2017-09-22T02:00:35.782Z,12.87
2017-09-22T02:01:50.045Z,12.84
2017-09-22T02:03:04.413Z,12.83
2017-09-22T02:04:18.040Z,12.82
2017-09-22T02:05:32.557Z,12.81
2017-09-22T02:06:47.467Z,12.79
2017-09-22T02:08:01.015Z,12.78
2017-09-22T02:09:15.161Z,12.77
2017-09-22T02:10:29.925Z,12.76
2017-09-22T02:11:44.178Z,12.75
2017-09-22T02:12:58.204Z,12.74
2017-09-22T02:14:12.576Z,12.72
2017-09-22T02:15:26.454Z,12.71
2017-09-22T02:16:40.338Z,12.68
2017-09-22T02:17:54.683Z,12.64
2017-09-22T02:19:08.834Z,12.62
2017-09-22T02:20:23.031Z,12.6
2017-09-22T02:21:36.591Z,12.57
2017-09-22T02:22:50.147Z,12.55
2017-09-22T02:24:04.050Z,12.55
2017-09-22T02:25:17.772Z,12.54
2017-09-22T02:26:31.342Z,12.53
2017-09-22T02:27:45.040Z,12.54
2017-09-22T02:28:58.788Z,12.51
2017-09-22T02:30:12.694Z,12.5
2017-09-22T02:31:26.336Z,12.49
2017-09-22T02:32:39.875Z,12.5
2017-09-22T02:33:53.421Z,12.5
2017-09-22T02:35:07.588Z,12.5
2017-09-22T02:36:21.765Z,12.5
2017-09-22T02:37:35.443Z,12.51
2017-09-22T02:38:49.182Z,12.51
2017-09-22T02:40:02.889Z,12.52
2017-09-22T02:41:16.737Z,12.54
2017-09-22T02:42:30.754Z,12.56
2017-09-22T02:43:44.427Z,12.59
2017-09-22T02:44:58.043Z,12.61
2017-09-22T02:46:11.581Z,12.63
2017-09-22T02:47:25.111Z,12.64
2017-09-22T02:48:38.962Z,12.64
2017-09-22T02:49:52.493Z,12.66
2017-09-22T02:51:06.847Z,12.69
2017-09-22T02:52:20.781Z,12.71
2017-09-22T02:53:34.339Z,12.73
2017-09-22T02:54:54.464Z,12.76
2017-09-22T02:56:08.469Z,12.76
2017-09-22T02:57:22.127Z,12.75
2017-09-22T02:58:35.810Z,12.75
2017-09-22T02:59:49.383Z,12.74
2017-09-22T03:01:02.915Z,12.73
2017-09-22T03:02:16.468Z,12.71
2017-09-22T03:03:30.140Z,12.71
2017-09-22T03:04:43.712Z,12.7
2017-09-22T03:05:57.481Z,12.67
2017-09-22T03:07:11.694Z,12.66
2017-09-22T03:08:25.857Z,12.63
2017-09-22T03:09:40.386Z,12.59
2017-09-22T03:10:54.005Z,12.56
2017-09-22T03:12:07.648Z,12.53
2017-09-22T03:13:21.576Z,12.48
2017-09-22T03:14:35.104Z,12.44
2017-09-22T03:15:48.829Z,12.41
2017-09-22T03:17:02.523Z,12.4
2017-09-22T03:18:16.112Z,12.39
2017-09-22T03:19:29.927Z,12.38
2017-09-22T03:20:43.836Z,12.39
2017-09-22T03:21:57.709Z,12.39
2017-09-22T03:23:11.619Z,12.42
2017-09-22T03:24:25.168Z,12.45
2017-09-22T03:25:39.380Z,12.46
2017-09-22T03:26:52.929Z,12.47
2017-09-22T03:28:06.441Z,12.47
2017-09-22T03:29:20.399Z,12.46
2017-09-22T03:30:33.990Z,12.46
2017-09-22T03:31:47.861Z,12.42
2017-09-22T03:33:01.462Z,12.4
2017-09-22T03:34:15.117Z,12.38
2017-09-22T03:35:28.703Z,12.36
2017-09-22T03:36:42.253Z,12.36
2017-09-22T03:37:55.894Z,12.36
2017-09-22T03:39:09.430Z,12.36
2017-09-22T03:40:22.962Z,12.36
2017-09-22T03:41:36.532Z,12.35
2017-09-22T03:42:50.275Z,12.36
2017-09-22T03:44:04.463Z,12.36
2017-09-22T03:45:18.156Z,12.38
2017-09-22T03:46:31.847Z,12.39
2017-09-22T03:47:45.383Z,12.4
2017-09-22T03:48:59.394Z,12.41
2017-09-22T03:50:13.230Z,12.44
2017-09-22T03:51:26.773Z,12.48
2017-09-22T03:52:40.355Z,12.52
2017-09-22T03:53:54.238Z,12.54
2017-09-22T03:55:09.037Z,12.54
2017-09-22T03:56:30.960Z,12.54
2017-09-22T03:57:46.308Z,12.52
2017-09-22T03:59:01.556Z,12.51
2017-09-22T04:00:15.481Z,12.5
2017-09-22T04:01:30.837Z,12.5
2017-09-22T04:02:47.602Z,12.48
2017-09-22T04:04:06.902Z,12.48
2017-09-22T04:05:21.956Z,12.48
2017-09-22T04:06:35.693Z,12.49
2017-09-22T04:07:49.619Z,12.49
2017-09-22T04:09:03.256Z,12.49
2017-09-22T04:10:17.836Z,12.49
2017-09-22T04:11:31.775Z,12.49
2017-09-22T04:12:45.549Z,12.5
2017-09-22T04:13:59.461Z,12.51
2017-09-22T04:15:13.012Z,12.51
2017-09-22T04:16:27.304Z,12.52
2017-09-22T04:17:47.486Z,12.52
2017-09-22T04:19:01.203Z,12.51
2017-09-22T04:20:15.401Z,12.51
2017-09-22T04:21:29.207Z,12.51
2017-09-22T04:22:42.743Z,12.51
2017-09-22T04:23:56.314Z,12.51
2017-09-22T04:25:10.393Z,12.51
2017-09-22T04:26:24.254Z,12.52
2017-09-22T04:27:37.920Z,12.51
2017-09-22T04:28:52.345Z,12.53
2017-09-22T04:30:05.910Z,12.52
2017-09-22T04:31:19.589Z,12.53
2017-09-22T04:32:34.104Z,12.54
2017-09-22T04:33:47.734Z,12.55
2017-09-22T04:35:01.337Z,12.55
2017-09-22T04:36:14.892Z,12.56
2017-09-22T04:37:28.829Z,12.57
2017-09-22T04:38:42.810Z,12.57
2017-09-22T04:39:56.398Z,12.56
2017-09-22T04:41:10.392Z,12.56
2017-09-22T04:42:24.148Z,12.56
2017-09-22T04:43:37.687Z,12.55
2017-09-22T04:44:52.790Z,12.55
2017-09-22T04:46:06.680Z,12.54
2017-09-22T04:47:20.210Z,12.55
2017-09-22T04:48:33.753Z,12.56
2017-09-22T04:49:47.382Z,12.57
2017-09-22T04:51:01.420Z,12.57
2017-09-22T04:52:14.972Z,12.57
2017-09-22T04:53:28.826Z,12.57
2017-09-22T04:54:42.807Z,12.56
2017-09-22T04:55:56.438Z,12.53
2017-09-22T04:57:10.762Z,12.52
2017-09-22T04:58:24.318Z,12.51
2017-09-22T04:59:38.605Z,12.49
2017-09-22T05:00:52.189Z,12.47
2017-09-22T05:02:06.128Z,12.47
2017-09-22T05:03:20.071Z,12.45
2017-09-22T05:04:40.664Z,12.45
2017-09-22T05:05:54.248Z,12.46
2017-09-22T05:07:08.038Z,12.47
2017-09-22T05:08:22.020Z,12.46
2017-09-22T05:09:36.209Z,12.48
2017-09-22T05:10:51.523Z,12.49
2017-09-22T05:12:05.261Z,12.52
2017-09-22T05:13:18.968Z,12.54
2017-09-22T05:14:33.047Z,12.54
2017-09-22T05:15:47.338Z,12.55
2017-09-22T05:17:00.936Z,12.57
2017-09-22T05:18:14.722Z,12.59
2017-09-22T05:19:28.467Z,12.58
2017-09-22T05:20:42.357Z,12.61
2017-09-22T05:21:57.290Z,12.6
2017-09-22T05:23:11.208Z,12.6
2017-09-22T05:24:24.845Z,12.61
2017-09-22T05:25:38.574Z,12.6
2017-09-22T05:26:52.564Z,12.63
2017-09-22T05:28:06.459Z,12.64
2017-09-22T05:29:20.463Z,12.64
2017-09-22T05:30:33.983Z,12.66
2017-09-22T05:31:47.615Z,12.67
2017-09-22T05:33:01.145Z,12.67
2017-09-22T05:34:15.338Z,12.69
2017-09-22T05:35:28.934Z,12.69
2017-09-22T05:36:42.491Z,12.68
2017-09-22T05:37:57.093Z,12.67
2017-09-22T05:39:10.833Z,12.67
2017-09-22T05:40:24.976Z,12.67
2017-09-22T05:41:39.176Z,12.69
2017-09-22T05:42:53.148Z,12.73
2017-09-22T05:44:07.004Z,12.74
2017-09-22T05:45:20.542Z,12.77
2017-09-22T05:46:34.446Z,12.78
2017-09-22T05:47:48.425Z,12.79
2017-09-22T05:49:02.184Z,12.83
2017-09-22T05:50:16.256Z,12.84
2017-09-22T05:51:30.229Z,12.86
2017-09-22T05:52:44.128Z,12.89
2017-09-22T05:53:57.718Z,12.91
2017-09-22T05:55:11.452Z,12.95
2017-09-22T05:56:25.006Z,12.96
2017-09-22T05:57:39.139Z,13.01
2017-09-22T05:58:53.382Z,13
2017-09-22T06:00:06.988Z,13.03
2017-09-22T06:01:21.034Z,13.04
2017-09-22T06:02:34.638Z,13.06
2017-09-22T06:03:48.521Z,13.09
2017-09-22T06:05:03.048Z,13.12
2017-09-22T06:06:16.694Z,13.15
2017-09-22T06:07:30.403Z,13.15
2017-09-22T06:08:45.460Z,13.16
2017-09-22T06:09:59.632Z,13.17
2017-09-22T06:11:14.131Z,13.15
2017-09-22T06:12:27.694Z,13.12
2017-09-22T06:13:41.874Z,13.12
2017-09-22T06:14:56.106Z,13.12
2017-09-22T06:16:10.006Z,13.09
2017-09-22T06:17:24.418Z,13.09
2017-09-22T06:18:38.152Z,13.1
2017-09-22T06:19:52.805Z,13.1
2017-09-22T06:21:07.030Z,13.08
2017-09-22T06:22:20.622Z,13.08
2017-09-22T06:23:34.882Z,13.06
2017-09-22T06:24:48.480Z,13.09
2017-09-22T06:26:02.828Z,13.11
2017-09-22T06:27:16.704Z,13.12
2017-09-22T06:28:30.251Z,13.16
2017-09-22T06:29:45.128Z,13.17
2017-09-22T06:30:58.929Z,13.21
2017-09-22T06:32:12.485Z,13.25
2017-09-22T06:33:26.570Z,13.27
2017-09-22T06:34:40.146Z,13.28
2017-09-22T06:35:54.210Z,13.29
2017-09-22T06:37:07.866Z,13.3
2017-09-22T06:38:22.004Z,13.33
2017-09-22T06:39:36.045Z,13.35
2017-09-22T06:40:50.717Z,13.37
2017-09-22T06:42:04.972Z,13.38
2017-09-22T06:43:18.864Z,13.38
2017-09-22T06:44:33.011Z,13.4
2017-09-22T06:45:46.680Z,13.4
2017-09-22T06:47:00.267Z,13.47
2017-09-22T06:48:14.374Z,13.53
2017-09-22T06:49:28.935Z,13.57
2017-09-22T06:50:42.466Z,13.6
2017-09-22T06:51:56.016Z,13.63
2017-09-22T06:53:09.812Z,13.68
2017-09-22T06:54:23.653Z,13.72
2017-09-22T06:55:37.929Z,13.78
2017-09-22T06:56:51.684Z,13.82
2017-09-22T06:58:06.143Z,13.89
2017-09-22T06:59:20.254Z,13.92
2017-09-22T07:00:35.953Z,13.96
2017-09-22T07:01:50.938Z,14
2017-09-22T07:03:05.417Z,14.05
2017-09-22T07:04:19.808Z,14.08
2017-09-22T07:05:36.072Z,14.1
2017-09-22T07:06:50.077Z,14.11
2017-09-22T07:08:04.260Z,14.12
2017-09-22T07:09:18.368Z,14.12
2017-09-22T07:10:32.661Z,14.13
2017-09-22T07:11:46.589Z,14.16
2017-09-22T07:13:01.166Z,14.19
2017-09-22T07:14:15.513Z,14.23
2017-09-22T07:15:29.804Z,14.28
2017-09-22T07:16:43.655Z,14.34
2017-09-22T07:17:57.289Z,14.4
2017-09-22T07:19:10.833Z,14.47
2017-09-22T07:20:24.424Z,14.52
2017-09-22T07:22:29.243Z,14.59
2017-09-22T07:23:43.219Z,14.65
2017-09-22T07:24:57.786Z,14.7
2017-09-22T07:26:11.740Z,14.72
2017-09-22T07:27:25.382Z,14.71
2017-09-22T07:28:39.054Z,14.72
2017-09-22T07:29:52.735Z,14.71
2017-09-22T07:31:06.625Z,14.73
2017-09-22T07:32:20.708Z,14.74
2017-09-22T07:33:34.622Z,14.77
2017-09-22T07:34:48.337Z,14.75
2017-09-22T07:36:02.291Z,14.77
2017-09-22T07:37:16.142Z,14.75
2017-09-22T07:38:29.741Z,14.79
2017-09-22T07:39:43.856Z,14.8
2017-09-22T07:40:58.569Z,14.82
2017-09-22T07:42:12.307Z,14.86
2017-09-22T07:43:26.488Z,14.87
2017-09-22T07:44:40.512Z,14.9
2017-09-22T07:45:54.395Z,14.9
2017-09-22T07:47:08.274Z,14.91
2017-09-22T07:48:21.866Z,14.95
2017-09-22T07:49:35.452Z,15.03
2017-09-22T07:50:49.035Z,15.12
2017-09-22T07:52:02.666Z,15.21
2017-09-22T07:53:17.034Z,15.26
2017-09-22T07:54:30.684Z,15.3
2017-09-22T07:55:44.914Z,15.31
2017-09-22T07:56:58.461Z,15.35
2017-09-22T07:58:12.469Z,15.37
2017-09-22T07:59:26.662Z,15.38
2017-09-22T08:00:40.242Z,15.37
2017-09-22T08:01:54.078Z,15.38
2017-09-22T08:03:07.617Z,15.38
2017-09-22T08:04:21.185Z,15.36
2017-09-22T08:05:34.765Z,15.36
2017-09-22T08:06:48.711Z,15.36
2017-09-22T08:08:03.303Z,15.38
2017-09-22T08:09:42.625Z,15.43
2017-09-22T08:10:56.156Z,15.49
2017-09-22T08:12:10.403Z,15.54
2017-09-22T08:13:24.242Z,15.58
2017-09-22T08:14:37.788Z,15.65
2017-09-22T08:15:52.451Z,15.71
2017-09-22T08:17:06.540Z,15.78
2017-09-22T08:18:20.268Z,15.86
2017-09-22T08:19:35.847Z,15.92
2017-09-22T08:20:49.701Z,15.98
2017-09-22T08:22:04.180Z,16.04
2017-09-22T08:23:18.199Z,16.06
2017-09-22T08:24:32.088Z,16.07
2017-09-22T08:25:46.104Z,16.12
2017-09-22T08:26:59.631Z,16.14
2017-09-22T08:28:13.434Z,16.13
2017-09-22T08:29:27.006Z,16.15
2017-09-22T08:30:40.542Z,16.18
2017-09-22T08:31:54.480Z,16.23
2017-09-22T08:33:09.299Z,16.25
2017-09-22T08:34:23.567Z,16.3
2017-09-22T08:35:37.641Z,16.38
2017-09-22T08:36:51.907Z,16.44
2017-09-22T08:38:06.255Z,16.52
2017-09-22T08:39:20.130Z,16.62
2017-09-22T08:40:33.716Z,16.71
2017-09-22T08:41:48.105Z,16.81
2017-09-22T08:43:01.712Z,16.88
2017-09-22T08:44:16.168Z,16.94
2017-09-22T08:45:29.762Z,16.99
2017-09-22T08:46:43.752Z,17.03
2017-09-22T08:47:57.453Z,17.09
2017-09-22T08:49:11.153Z,17.11
2017-09-22T08:50:25.726Z,17.12
2017-09-22T08:51:39.476Z,17.14
2017-09-22T08:52:59.802Z,17.14
2017-09-22T08:54:13.507Z,17.13
2017-09-22T08:55:27.376Z,17.14
2017-09-22T08:56:41.211Z,17.14
2017-09-22T08:57:55.046Z,17.17
2017-09-22T08:59:09.557Z,17.16
2017-09-22T09:00:23.682Z,17.14
2017-09-22T09:01:38.479Z,17.15
2017-09-22T09:02:52.628Z,17.15
2017-09-22T09:04:06.235Z,17.17
2017-09-22T09:05:19.982Z,17.17
2017-09-22T09:06:33.641Z,17.17
2017-09-22T09:07:47.200Z,17.15
2017-09-22T09:09:01.436Z,17.13
2017-09-22T09:10:14.983Z,17.14
2017-09-22T09:11:28.860Z,17.18
2017-09-22T09:12:43.045Z,17.22
2017-09-22T09:13:57.028Z,17.28
2017-09-22T09:15:11.189Z,17.35
2017-09-22T09:16:25.493Z,17.39
2017-09-22T09:17:39.690Z,17.44
2017-09-22T09:18:53.486Z,17.49
2017-09-22T09:20:07.403Z,17.54
2017-09-22T09:21:20.967Z,17.6
2017-09-22T09:22:34.886Z,17.67
2017-09-22T09:23:49.395Z,17.73
2017-09-22T09:25:02.952Z,17.79
2017-09-22T09:26:16.586Z,17.85
2017-09-22T09:27:30.155Z,17.91
2017-09-22T09:28:44.027Z,17.97
2017-09-22T09:29:57.604Z,18
2017-09-22T09:31:11.284Z,18.03
2017-09-22T09:32:24.954Z,18.05
2017-09-22T09:33:38.895Z,18.09
2017-09-22T09:34:52.568Z,18.13
2017-09-22T09:36:06.497Z,18.18
2017-09-22T09:37:20.100Z,18.22
2017-09-22T09:38:33.818Z,18.24
2017-09-22T09:39:47.745Z,18.28
2017-09-22T09:41:03.042Z,18.3
2017-09-22T09:42:18.573Z,18.33
2017-09-22T09:43:32.799Z,18.38
2017-09-22T09:44:46.815Z,18.44
2017-09-22T09:46:00.745Z,18.47
2017-09-22T09:47:14.720Z,18.49
2017-09-22T09:48:28.637Z,18.53
2017-09-22T09:49:42.194Z,18.58
2017-09-22T09:50:56.137Z,18.65
2017-09-22T09:52:10.086Z,18.71
2017-09-22T09:53:24.384Z,18.77
2017-09-22T09:54:38.146Z,18.81
2017-09-22T09:55:52.072Z,18.85
2017-09-22T09:57:05.996Z,18.9
2017-09-22T09:58:19.984Z,18.98
2017-09-22T09:59:33.542Z,19.04
2017-09-22T10:00:47.111Z,19.08
2017-09-22T10:02:00.925Z,19.13
2017-09-22T10:03:15.094Z,19.2
2017-09-22T10:04:29.154Z,19.26
2017-09-22T10:05:42.708Z,19.31
2017-09-22T10:06:56.925Z,19.35
2017-09-22T10:08:11.438Z,19.38
2017-09-22T10:09:25.346Z,19.41
2017-09-22T10:10:39.376Z,19.45
2017-09-22T10:11:53.332Z,19.44
2017-09-22T10:13:07.753Z,19.41
2017-09-22T10:14:22.313Z,19.38
2017-09-22T10:15:36.017Z,19.35
2017-09-22T10:16:50.621Z,19.37
2017-09-22T10:18:04.180Z,19.42
2017-09-22T10:19:18.274Z,19.47
2017-09-22T10:20:32.199Z,19.51
2017-09-22T10:21:45.900Z,19.54
2017-09-22T10:23:00.294Z,19.52
2017-09-22T10:24:14.096Z,19.53
2017-09-22T10:25:28.488Z,19.53
2017-09-22T10:26:42.122Z,19.53
2017-09-22T10:27:55.662Z,19.54
2017-09-22T10:29:09.384Z,19.57
2017-09-22T10:30:23.952Z,19.61
2017-09-22T10:31:37.684Z,19.62
2017-09-22T10:32:51.237Z,19.63
2017-09-22T10:34:04.996Z,19.64
2017-09-22T10:35:18.885Z,19.64
2017-09-22T10:36:32.473Z,19.64
2017-09-22T10:37:46.309Z,19.68
2017-09-22T10:39:00.703Z,19.71
2017-09-22T10:40:14.646Z,19.75
2017-09-22T10:41:28.248Z,19.78
2017-09-22T10:42:42.174Z,19.83
2017-09-22T10:43:56.608Z,19.87
2017-09-22T10:45:10.838Z,19.91
2017-09-22T10:46:24.673Z,19.95
2017-09-22T10:47:38.513Z,19.98
2017-09-22T10:48:52.051Z,19.98
2017-09-22T10:50:05.665Z,19.96
2017-09-22T10:51:20.643Z,19.93
2017-09-22T10:52:35.554Z,19.93
2017-09-22T10:53:50.618Z,19.93
2017-09-22T10:55:04.989Z,19.95
2017-09-22T10:56:19.165Z,19.96
2017-09-22T10:57:33.162Z,20.02
2017-09-22T10:58:46.760Z,20.09
2017-09-22T11:00:01.242Z,20.14
2017-09-22T11:01:14.828Z,20.19
2017-09-22T11:02:29.195Z,20.25
2017-09-22T11:03:42.838Z,20.33
2017-09-22T11:04:56.756Z,20.41
2017-09-22T11:06:10.736Z,20.45
2017-09-22T11:07:24.717Z,20.5
2017-09-22T11:08:38.285Z,20.52
2017-09-22T11:09:52.685Z,20.55
2017-09-22T11:11:06.363Z,20.55
2017-09-22T11:12:20.756Z,20.57
2017-09-22T11:13:34.293Z,20.59
2017-09-22T11:14:48.414Z,20.61
2017-09-22T11:16:02.696Z,20.63
2017-09-22T11:17:16.961Z,20.65
2017-09-22T11:18:31.124Z,20.65
2017-09-22T11:19:45.708Z,20.71
2017-09-22T11:21:00.432Z,20.73
2017-09-22T11:22:14.280Z,20.79
2017-09-22T11:23:28.270Z,20.87
2017-09-22T11:24:42.482Z,20.94
2017-09-22T11:25:56.532Z,20.99
2017-09-22T11:27:10.194Z,21.04
2017-09-22T11:28:24.266Z,21.03
2017-09-22T11:29:37.941Z,21.03
2017-09-22T11:30:52.555Z,20.99
2017-09-22T11:32:06.909Z,20.95
2017-09-22T11:33:21.951Z,20.92
2017-09-22T11:34:36.677Z,20.9
2017-09-22T11:35:50.821Z,20.89
2017-09-22T11:37:04.944Z,20.89
2017-09-22T11:38:19.025Z,20.94
2017-09-22T11:39:33.276Z,20.92
2017-09-22T11:40:47.027Z,20.93
2017-09-22T11:42:01.840Z,20.9
2017-09-22T11:43:16.810Z,20.89
2017-09-22T11:44:30.784Z,20.87
2017-09-22T11:45:44.430Z,20.86
2017-09-22T11:46:58.667Z,20.85
2017-09-22T11:48:12.857Z,20.86
2017-09-22T11:49:27.061Z,20.89
2017-09-22T11:50:40.800Z,20.92
2017-09-22T11:51:54.747Z,20.92
2017-09-22T11:53:09.057Z,20.95
2017-09-22T11:54:22.869Z,20.97
2017-09-22T11:55:36.414Z,20.97
2017-09-22T11:56:50.018Z,20.97
2017-09-22T11:58:04.289Z,21
2017-09-22T11:59:17.892Z,21.01
2017-09-22T12:00:31.668Z,21.05
2017-09-22T12:01:45.860Z,21.1
2017-09-22T12:03:00.009Z,21.11
2017-09-22T12:04:14.878Z,21.12
2017-09-22T12:05:28.701Z,21.13
2017-09-22T12:06:42.291Z,21.14
2017-09-22T12:07:56.005Z,21.15
2017-09-22T12:09:09.547Z,21.18
2017-09-22T12:10:23.090Z,21.24
2017-09-22T12:11:37.035Z,21.27
2017-09-22T12:12:50.996Z,21.3
2017-09-22T12:14:04.729Z,21.31
2017-09-22T12:15:18.456Z,21.29
2017-09-22T12:16:32.354Z,21.3
2017-09-22T12:17:46.632Z,21.32
2017-09-22T12:19:01.849Z,21.33
2017-09-22T12:20:16.252Z,21.37
2017-09-22T12:21:29.862Z,21.4
2017-09-22T12:22:43.657Z,21.42
2017-09-22T12:23:58.090Z,21.43
2017-09-22T12:25:11.906Z,21.47
2017-09-22T12:26:25.634Z,21.46
2017-09-22T12:27:39.522Z,21.48
2017-09-22T12:28:54.226Z,21.49
2017-09-22T12:30:08.010Z,21.49
2017-09-22T12:31:22.022Z,21.49
2017-09-22T12:32:35.705Z,21.5
2017-09-22T12:33:50.073Z,21.48
2017-09-22T12:35:03.648Z,21.45
2017-09-22T12:36:17.208Z,21.47
2017-09-22T12:37:30.807Z,21.46
2017-09-22T12:38:45.278Z,21.49
2017-09-22T12:39:59.056Z,21.52
2017-09-22T12:41:12.636Z,21.55
2017-09-22T12:42:26.605Z,21.57
2017-09-22T12:43:40.775Z,21.58
2017-09-22T12:44:55.059Z,21.58
2017-09-22T12:46:09.124Z,21.58
2017-09-22T12:47:23.036Z,21.6
2017-09-22T12:48:36.696Z,21.62
2017-09-22T12:49:50.634Z,21.62
2017-09-22T12:51:04.710Z,21.61
2017-09-22T12:52:18.746Z,21.61
2017-09-22T12:53:32.334Z,21.6
2017-09-22T12:54:46.046Z,21.57
2017-09-22T12:55:59.641Z,21.56
2017-09-22T12:57:13.517Z,21.56
2017-09-22T12:58:27.052Z,21.53
2017-09-22T12:59:40.961Z,21.51
2017-09-22T13:00:55.231Z,21.5
2017-09-22T13:02:09.470Z,21.51
2017-09-22T13:03:23.537Z,21.52
2017-09-22T13:04:37.730Z,21.52
2017-09-22T13:05:52.009Z,21.53
2017-09-22T13:07:05.697Z,21.56
2017-09-22T13:08:19.253Z,21.56
2017-09-22T13:09:33.833Z,21.59
2017-09-22T13:10:47.790Z,21.62
2017-09-22T13:12:01.558Z,21.68
2017-09-22T13:13:15.182Z,21.73
2017-09-22T13:14:28.751Z,21.81
2017-09-22T13:15:43.555Z,21.89
2017-09-22T13:16:57.168Z,21.96
2017-09-22T13:18:11.119Z,22.03
2017-09-22T13:19:24.994Z,22.06
2017-09-22T13:20:40.431Z,22.13
2017-09-22T13:21:54.622Z,22.2
2017-09-22T13:23:08.808Z,22.25
2017-09-22T13:24:22.849Z,22.3
2017-09-22T13:25:37.561Z,22.31
2017-09-22T13:26:51.451Z,22.31
2017-09-22T13:28:05.490Z,22.32
2017-09-22T13:29:19.193Z,22.34
2017-09-22T13:30:33.350Z,22.37
2017-09-22T13:31:47.244Z,22.4
2017-09-22T13:33:01.372Z,22.43
2017-09-22T13:34:15.655Z,22.48
2017-09-22T13:35:29.400Z,22.5
2017-09-22T13:36:43.068Z,22.49
2017-09-22T13:37:57.775Z,22.46
2017-09-22T13:39:11.554Z,22.45
2017-09-22T13:40:25.541Z,22.42
2017-09-22T13:41:39.979Z,22.41
2017-09-22T13:42:53.648Z,22.39
2017-09-22T13:44:08.076Z,22.41
2017-09-22T13:45:21.844Z,22.43
2017-09-22T13:46:37.092Z,22.45
2017-09-22T13:47:50.886Z,22.52
2017-09-22T13:49:04.520Z,22.59
2017-09-22T13:50:18.647Z,22.65
2017-09-22T13:51:32.809Z,22.7
2017-09-22T13:52:47.575Z,22.73
2017-09-22T13:58:16.366Z,22.78
2017-09-22T13:59:30.327Z,22.76
2017-09-22T14:00:44.870Z,22.76
2017-09-22T14:01:58.807Z,22.76
2017-09-22T14:30:40.811Z,22.07
2017-09-22T14:31:54.498Z,22.08
2017-09-22T14:33:08.503Z,22.1
2017-09-22T14:34:22.544Z,22.12
2017-09-22T14:35:36.476Z,22.14
2017-09-22T14:36:49.996Z,22.17
2017-09-22T14:38:03.766Z,22.19
2017-09-22T14:39:17.409Z,22.19
2017-09-22T14:40:30.978Z,22.21
2017-09-22T14:41:45.016Z,22.2
2017-09-22T14:42:58.904Z,22.19
2017-09-22T14:44:13.277Z,22.17
2017-09-22T14:45:28.739Z,22.14
2017-09-22T14:46:42.351Z,22.14
2017-09-22T14:47:56.663Z,22.13
2017-09-22T14:49:11.494Z,22.1
2017-09-22T14:50:25.690Z,22.1
2017-09-22T14:51:39.711Z,22.1
2017-09-22T14:52:53.441Z,22.07
2017-09-22T14:54:07.048Z,22.04
2017-09-22T14:55:21.809Z,21.99
2017-09-22T14:56:36.322Z,21.95
2017-09-22T14:57:49.927Z,21.9
2017-09-22T14:59:04.828Z,21.87
2017-09-22T15:00:18.367Z,21.85
2017-09-22T15:01:32.348Z,21.83
2017-09-22T15:02:45.974Z,21.79
2017-09-22T15:03:59.534Z,21.77
2017-09-22T15:05:13.475Z,21.76
2017-09-22T15:06:27.367Z,21.75
2017-09-22T15:07:41.518Z,21.75
2017-09-22T15:08:55.323Z,21.73
2017-09-22T15:10:09.381Z,21.73
2017-09-22T15:11:23.445Z,21.73
2017-09-22T15:12:37.432Z,21.71
2017-09-22T15:13:51.326Z,21.7
2017-09-22T15:15:04.841Z,21.69
2017-09-22T15:16:18.589Z,21.69
2017-09-22T15:17:32.136Z,21.68
2017-09-22T15:18:45.716Z,21.68
2017-09-22T15:19:59.866Z,21.65
2017-09-22T15:21:13.727Z,21.62
2017-09-22T15:22:27.434Z,21.6
2017-09-22T15:23:41.249Z,21.56
2017-09-22T15:24:55.022Z,21.53
2017-09-22T15:26:09.246Z,21.53
2017-09-22T15:27:23.756Z,21.5
2017-09-22T15:28:38.582Z,21.52
2017-09-22T15:29:52.291Z,21.51
2017-09-22T15:31:06.462Z,21.48
2017-09-22T15:32:20.785Z,21.49
2017-09-22T15:33:34.942Z,21.49
2017-09-22T15:34:49.566Z,21.49
2017-09-22T15:36:03.688Z,21.49
2017-09-22T15:37:18.246Z,21.47
2017-09-22T15:38:32.737Z,21.43
2017-09-22T15:39:47.081Z,21.42
2017-09-22T15:41:01.124Z,21.4
2017-09-22T15:42:15.178Z,21.37
2017-09-22T15:43:29.119Z,21.37
2017-09-22T15:44:42.770Z,21.35
2017-09-22T15:45:56.730Z,21.35
2017-09-22T15:47:11.080Z,21.33
2017-09-22T15:48:24.870Z,21.35
2017-09-22T15:49:38.565Z,21.35
2017-09-22T15:50:52.109Z,21.34
2017-09-22T15:52:05.886Z,21.35
2017-09-22T15:53:19.443Z,21.34
2017-09-22T15:54:33.645Z,21.35
2017-09-22T15:55:47.324Z,21.36
2017-09-22T15:57:01.473Z,21.36
2017-09-22T15:58:15.540Z,21.38
2017-09-22T15:59:29.343Z,21.38
2017-09-22T16:00:44.005Z,21.38
2017-09-22T16:01:57.856Z,21.39
2017-09-22T16:03:12.662Z,21.36
2017-09-22T16:04:26.181Z,21.33
2017-09-22T16:05:40.360Z,21.31
2017-09-22T16:06:53.942Z,21.27
2017-09-22T16:08:07.800Z,21.22
2017-09-22T16:09:21.359Z,21.2
2017-09-22T16:10:34.916Z,21.17
2017-09-22T16:11:48.978Z,21.17
2017-09-22T16:13:02.547Z,21.14
2017-09-22T16:14:16.276Z,21.13
2017-09-22T16:15:30.197Z,21.12
2017-09-22T16:16:47.574Z,21.1
2017-09-22T16:18:01.635Z,21.07
2017-09-22T16:19:15.786Z,21.04
2017-09-22T16:20:29.774Z,21.02
2017-09-22T16:21:43.495Z,21
2017-09-22T16:22:57.641Z,20.99
2017-09-22T16:24:11.717Z,20.96
2017-09-22T16:25:25.374Z,20.94
2017-09-22T16:26:38.907Z,20.92
2017-09-22T16:27:53.243Z,20.89
2017-09-22T16:29:06.919Z,20.87
2017-09-22T16:30:20.494Z,20.85
2017-09-22T16:31:34.603Z,20.82
2017-09-22T16:32:48.112Z,20.79
2017-09-22T16:34:02.212Z,20.76
2017-09-22T16:35:16.026Z,20.73
2017-09-22T16:36:30.236Z,20.7
2017-09-22T16:37:43.905Z,20.67
2017-09-22T16:38:59.295Z,20.65
2017-09-22T16:40:13.375Z,20.64
2017-09-22T16:41:27.726Z,20.61
2017-09-22T16:42:42.087Z,20.56
2017-09-22T16:43:56.358Z,20.54
2017-09-22T16:45:09.883Z,20.5